Time;durP1;ratioP1;P1;durP2;ratioP2;P2;SDS_P1;SDS_P2;PMS_P1;PMS_P2;Temp;Humidity;BMP_temperature;BMP_pressure;BME280_temperature;BME280_humidity;BME280_pressure;Samples;Min_cycle;Max_cycle;Signal;HPM_P1;HPM_P2
2023/09/03 00:01:46;;;;;;;5.03;3.47;;;;;;;15.33;78.91;101047.75;10405831;28;20064;-68
2023/09/03 00:06:49;;;;;;;5.82;3.60;;;;;;;15.29;79.26;101052.25;10443022;28;20045;-68
2023/09/03 00:11:51;;;;;;;5.22;3.70;;;;;;;14.94;80.95;101042.59;10447914;28;20443;-68
2023/09/03 00:16:53;;;;;;;6.72;4.03;;;;;;;14.88;82.37;101051.25;10447429;28;20042;-69
2023/09/03 00:21:55;;;;;;;6.18;3.95;;;;;;;14.81;82.25;101059.13;10446973;28;20037;-68
2023/09/03 00:26:58;;;;;;;5.82;4.25;;;;;;;15.22;81.71;101060.09;10447334;28;20052;-68
2023/09/03 00:32:00;;;;;;;7.03;4.22;;;;;;;14.86;81.58;101065.38;10444653;28;20044;-68
2023/09/03 00:37:03;;;;;;;10.88;4.95;;;;;;;14.66;83.20;101066.50;10446278;28;20041;-68
2023/09/03 00:42:05;;;;;;;7.15;3.72;;;;;;;14.65;83.65;101075.91;10444298;28;20041;-68
2023/09/03 00:47:07;;;;;;;10.25;4.07;;;;;;;14.68;83.33;101080.81;10445288;28;20164;-68
2023/09/03 00:52:11;;;;;;;10.02;4.45;;;;;;;14.93;82.44;101087.13;10452670;28;20044;-69
2023/09/03 00:57:13;;;;;;;6.03;4.13;;;;;;;15.09;82.22;101074.69;10475249;28;20060;-68
2023/09/03 01:02:17;;;;;;;7.68;4.95;;;;;;;15.13;81.48;101077.69;10482244;28;20041;-68
2023/09/03 01:07:19;;;;;;;5.30;4.05;;;;;;;15.27;81.01;101084.06;10467820;28;20041;-68
2023/09/03 01:12:29;;;;;;;8.48;4.53;;;;;;;14.88;81.27;101089.94;10474029;28;20037;-68
2023/09/03 01:17:38;;;;;;;7.80;4.70;;;;;;;14.73;82.55;101083.50;10448128;28;20033;-68
2023/09/03 01:23:08;;;;;;;7.85;4.30;;;;;;;14.50;83.68;101100.97;10417983;28;20540;-68
2023/09/03 01:28:22;;;;;;;6.47;4.10;;;;;;;14.21;85.36;101098.25;10411449;28;20037;-69
2023/09/03 01:33:30;;;;;;;9.32;5.20;;;;;;;14.64;83.66;101090.84;10414992;28;20034;-68
2023/09/03 01:38:33;;;;;;;7.00;4.05;;;;;;;14.22;84.89;101105.41;10431506;28;20678;-69
2023/09/03 01:43:35;;;;;;;6.15;4.50;;;;;;;14.01;85.06;101104.00;10470735;28;20049;-69
2023/09/03 01:49:02;;;;;;;9.98;5.50;;;;;;;13.96;85.32;101104.06;10396050;28;20048;-68
2023/09/03 01:54:18;;;;;;;12.15;5.32;;;;;;;13.89;86.22;101112.69;10471397;28;20049;-69
2023/09/03 01:59:24;;;;;;;9.05;5.25;;;;;;;13.64;87.19;101107.41;10449192;28;20052;-69
2023/09/03 02:04:27;;;;;;;8.70;5.93;;;;;;;13.95;87.63;101107.94;10467062;28;20053;-68
2023/09/03 02:09:29;;;;;;;7.32;4.50;;;;;;;14.08;86.26;101099.78;10439395;28;20052;-68
2023/09/03 02:14:31;;;;;;;11.23;5.40;;;;;;;14.03;85.91;101108.09;10463556;28;20044;-68
2023/09/03 02:19:33;;;;;;;10.38;5.60;;;;;;;13.85;86.26;101106.09;10466642;28;20069;-68
2023/09/03 02:24:38;;;;;;;9.27;5.18;;;;;;;13.53;88.15;101102.00;10429848;28;20044;-68
2023/09/03 02:29:41;;;;;;;9.25;5.25;;;;;;;13.52;88.66;101094.81;10465101;28;20048;-68
2023/09/03 02:34:44;;;;;;;6.97;4.50;;;;;;;13.76;88.31;101096.84;10470561;28;20046;-68
2023/09/03 02:39:49;;;;;;;11.30;5.28;;;;;;;13.83;87.34;101097.28;10472832;28;20424;-68
2023/09/03 02:44:51;;;;;;;7.47;5.00;;;;;;;13.72;87.52;101085.56;10438156;28;20514;-68
2023/09/03 02:49:53;;;;;;;7.47;4.93;;;;;;;13.92;86.57;101100.25;10456676;28;20030;-68
2023/09/03 02:54:55;;;;;;;7.60;3.97;;;;;;;14.04;86.90;101086.84;10424943;28;20041;-68
2023/09/03 02:59:57;;;;;;;6.82;4.75;;;;;;;14.38;85.19;101095.00;10448755;28;20412;-68
2023/09/03 03:05:00;;;;;;;7.97;4.60;;;;;;;13.94;85.34;101098.03;10432766;28;20053;-68
2023/09/03 03:10:03;;;;;;;6.80;4.53;;;;;;;13.98;86.54;101105.41;10435454;28;20072;-68
2023/09/03 03:15:06;;;;;;;9.02;4.47;;;;;;;14.24;85.09;101096.88;10448413;28;20042;-69
2023/09/03 03:20:09;;;;;;;7.85;4.45;;;;;;;14.43;84.83;101100.47;10448420;28;20045;-68
2023/09/03 03:25:13;;;;;;;6.13;4.38;;;;;;;14.42;83.39;101090.56;10447314;28;20423;-68
2023/09/03 03:30:15;;;;;;;5.43;3.30;;;;;;;14.29;84.39;101094.03;10432630;28;20051;-68
2023/09/03 03:35:19;;;;;;;8.13;4.07;;;;;;;14.40;84.00;101095.53;10470103;28;20033;-68
2023/09/03 03:40:21;;;;;;;6.63;4.05;;;;;;;15.22;80.66;101079.44;10447050;28;20056;-69
2023/09/03 03:45:23;;;;;;;7.22;3.75;;;;;;;15.04;80.43;101081.13;10450417;28;20545;-68
2023/09/03 03:50:29;;;;;;;6.00;3.70;;;;;;;14.76;81.18;101084.88;10467525;28;20030;-69
2023/09/03 03:55:31;;;;;;;8.23;4.40;;;;;;;15.16;80.08;101093.66;10473972;28;20047;-68
2023/09/03 04:00:33;;;;;;;4.60;3.30;;;;;;;15.15;79.88;101087.31;10450207;28;20501;-68
2023/09/03 04:05:36;;;;;;;6.65;3.78;;;;;;;15.25;79.83;101092.66;10455375;28;20045;-69
2023/09/03 04:10:39;;;;;;;7.32;3.80;;;;;;;15.32;78.75;101093.13;10465112;28;20037;-68
2023/09/03 04:15:41;;;;;;;5.88;3.25;;;;;;;15.61;78.20;101092.91;10420988;28;20037;-69
2023/09/03 04:20:44;;;;;;;5.53;3.70;;;;;;;15.32;78.99;101087.59;10442474;28;20049;-68
2023/09/03 04:25:51;;;;;;;7.85;4.05;;;;;;;15.47;78.75;101080.97;10428914;28;20539;-68
2023/09/03 04:31:08;;;;;;;4.68;3.50;;;;;;;16.75;74.60;101084.84;10445768;28;20052;-68
2023/09/03 04:36:12;;;;;;;6.38;4.05;;;;;;;18.04;68.79;101096.03;10445449;28;20037;-68
2023/09/03 04:41:14;;;;;;;6.72;4.00;;;;;;;19.04;65.33;101086.97;10444607;28;20052;-69
2023/09/03 04:46:24;;;;;;;6.97;3.58;;;;;;;19.46;63.84;101090.88;10429558;28;20060;-69
2023/09/03 04:51:26;;;;;;;4.60;3.30;;;;;;;19.95;61.55;101077.50;10445965;28;20045;-69
2023/09/03 04:56:28;;;;;;;6.43;3.40;;;;;;;19.76;61.40;101089.03;10449177;28;20049;-69
2023/09/03 05:01:31;;;;;;;5.38;3.58;;;;;;;20.43;59.96;101079.91;10462798;28;20056;-69
2023/09/03 05:06:34;;;;;;;6.07;3.78;;;;;;;20.76;59.05;101083.63;10444359;28;20045;-69
2023/09/03 05:11:39;;;;;;;7.25;3.58;;;;;;;21.40;57.45;101082.47;10461727;28;20052;-70
2023/09/03 05:16:43;;;;;;;5.25;3.42;;;;;;;20.92;58.61;101078.25;10443134;28;20045;-69
2023/09/03 05:21:50;;;;;;;6.30;3.40;;;;;;;20.03;61.11;101083.03;10439220;28;20033;-69
2023/09/03 05:26:53;;;;;;;4.40;2.95;;;;;;;19.78;61.27;101086.72;10468552;28;20605;-69
2023/09/03 05:31:55;;;;;;;5.38;3.58;;;;;;;19.79;61.88;101091.16;10455841;28;20040;-69
2023/09/03 05:36:58;;;;;;;5.32;3.30;;;;;;;19.95;60.90;101097.81;10441662;28;20917;-68
2023/09/03 05:42:00;;;;;;;5.53;3.33;;;;;;;19.44;62.49;101096.78;10409675;28;20053;-69
2023/09/03 05:47:03;;;;;;;3.63;3.08;;;;;;;19.54;63.10;101085.31;10435421;28;20041;-69
2023/09/03 05:52:05;;;;;;;4.85;3.13;;;;;;;19.20;63.89;101096.47;10445173;28;20043;-69
2023/09/03 05:57:08;;;;;;;4.68;3.28;;;;;;;18.49;66.11;101107.81;10442576;28;20056;-69
2023/09/03 06:02:10;;;;;;;5.50;2.92;;;;;;;18.06;68.33;101102.13;10442249;28;20515;-69
2023/09/03 06:07:13;;;;;;;6.20;3.47;;;;;;;17.53;70.08;101091.84;10443054;28;20450;-68
2023/09/03 06:12:15;;;;;;;4.90;3.33;;;;;;;18.95;67.15;101087.81;10442673;28;20029;-69
2023/09/03 06:17:17;;;;;;;4.10;3.08;;;;;;;20.96;60.40;101087.56;10443146;28;20037;-69
2023/09/03 06:22:20;;;;;;;5.20;3.40;;;;;;;21.08;58.35;101092.41;10441450;28;20041;-69
2023/09/03 06:27:22;;;;;;;5.05;3.10;;;;;;;20.29;60.89;101096.03;10439779;28;20049;-69
2023/09/03 06:32:24;;;;;;;4.97;3.10;;;;;;;19.64;63.19;101095.28;10449699;28;20045;-68
2023/09/03 06:37:27;;;;;;;5.05;2.95;;;;;;;19.41;64.00;101105.75;10450749;28;20052;-69
2023/09/03 06:42:29;;;;;;;4.70;2.85;;;;;;;19.02;64.93;101106.78;10450968;28;20064;-69
2023/09/03 06:47:32;;;;;;;4.57;2.70;;;;;;;19.24;65.29;101100.22;10450863;28;20033;-68
2023/09/03 06:52:34;;;;;;;3.45;2.33;;;;;;;20.33;62.30;101102.59;10450014;28;20045;-68
2023/09/03 06:57:36;;;;;;;4.55;2.83;;;;;;;21.58;57.26;101092.31;10420757;28;20049;-68
2023/09/03 07:02:39;;;;;;;7.38;3.15;;;;;;;21.82;56.55;101105.50;10408870;28;20455;-68
2023/09/03 07:07:41;;;;;;;3.70;2.40;;;;;;;21.44;56.77;101097.38;10408683;28;20045;-68
2023/09/03 07:12:44;;;;;;;7.50;2.20;;;;;;;21.17;57.82;101095.94;10409052;28;20053;-69
2023/09/03 07:17:46;;;;;;;3.25;2.10;;;;;;;20.55;60.36;101098.72;10408508;28;20050;-69
2023/09/03 07:22:48;;;;;;;4.97;1.90;;;;;;;21.39;58.32;101102.38;10407284;28;20045;-69
2023/09/03 07:27:51;;;;;;;3.72;1.60;;;;;;;23.75;52.29;101099.19;10407024;28;20042;-69
2023/09/03 07:32:53;;;;;;;2.22;1.77;;;;;;;22.79;53.79;101106.75;10406928;28;20045;-68
2023/09/03 07:37:55;;;;;;;2.15;1.80;;;;;;;22.85;54.12;101111.75;10407715;28;20038;-68
2023/09/03 07:42:57;;;;;;;3.55;1.90;;;;;;;21.28;56.75;101122.31;10406904;28;20420;-69
2023/09/03 07:48:00;;;;;;;3.70;1.85;;;;;;;22.18;55.52;101112.34;10408150;28;20530;-69
2023/09/03 07:53:03;;;;;;;5.55;2.47;;;;;;;23.43;53.13;101114.28;10422750;28;20046;-68
2023/09/03 07:58:06;;;;;;;2.65;2.10;;;;;;;25.31;48.49;101118.19;10407026;28;20053;-69
2023/09/03 08:03:08;;;;;;;4.20;2.50;;;;;;;24.96;48.48;101123.81;10414083;28;20511;-68
2023/09/03 08:08:11;;;;;;;3.50;2.45;;;;;;;25.94;46.36;101120.66;10417524;28;20076;-69
2023/09/03 08:13:13;;;;;;;4.40;2.08;;;;;;;25.54;46.38;101119.06;10427659;28;20049;-69
2023/09/03 08:18:16;;;;;;;3.67;2.38;;;;;;;25.16;47.64;101119.88;10447499;28;20498;-69
2023/09/03 08:23:18;;;;;;;2.72;2.03;;;;;;;22.54;53.10;101125.53;10424239;28;20443;-69
2023/09/03 08:28:21;;;;;;;3.53;2.30;;;;;;;22.25;54.02;101132.19;10406181;28;20034;-69
2023/09/03 08:33:23;;;;;;;3.45;2.20;;;;;;;24.43;49.31;101134.59;10440480;28;20052;-69
2023/09/03 08:38:25;;;;;;;2.85;1.98;;;;;;;21.65;55.38;101139.22;10440518;28;20041;-69
2023/09/03 08:43:28;;;;;;;4.28;2.20;;;;;;;21.06;56.95;101151.38;10445919;28;20076;-69
2023/09/03 08:48:30;;;;;;;3.72;2.50;;;;;;;20.93;57.90;101155.22;10443998;28;20500;-70
2023/09/03 08:53:34;;;;;;;3.63;2.38;;;;;;;20.68;59.37;101157.03;10443223;28;20041;-69
2023/09/03 08:58:36;;;;;;;2.47;1.95;;;;;;;20.86;59.13;101154.13;10443442;28;20042;-69
2023/09/03 09:03:38;;;;;;;4.05;2.20;;;;;;;21.13;58.85;101159.19;10440770;28;20060;-69
2023/09/03 09:08:41;;;;;;;2.75;1.95;;;;;;;20.74;59.58;101166.84;10468780;28;20045;-69
2023/09/03 09:13:52;;;;;;;3.15;2.20;;;;;;;20.81;60.22;101169.06;10426835;28;20041;-69
2023/09/03 09:18:54;;;;;;;3.13;2.08;;;;;;;20.49;61.66;101167.78;10443437;28;20072;-69
2023/09/03 09:24:03;;;;;;;4.28;2.40;;;;;;;20.17;62.00;101172.81;10483831;28;20045;-68
2023/09/03 09:29:06;;;;;;;3.15;2.30;;;;;;;19.91;63.40;101174.00;10484944;28;20056;-68
2023/09/03 09:34:14;;;;;;;2.63;2.20;;;;;;;19.92;63.54;101165.31;10463841;28;20041;-68
2023/09/03 09:39:16;;;;;;;3.65;2.40;;;;;;;19.89;63.91;101166.00;10441985;28;20518;-68
2023/09/03 09:44:20;;;;;;;2.58;2.13;;;;;;;19.79;64.28;101177.50;10443313;28;20049;-68
2023/09/03 09:49:22;;;;;;;2.03;1.88;;;;;;;20.02;63.99;101181.69;10443247;28;20522;-68
2023/09/03 09:54:24;;;;;;;2.00;1.67;;;;;;;20.14;63.87;101183.81;10442209;28;20041;-68
2023/09/03 09:59:27;;;;;;;2.95;1.70;;;;;;;20.20;63.71;101188.03;10476420;28;20052;-68
2023/09/03 10:04:29;;;;;;;1.85;1.60;;;;;;;20.52;62.77;101183.84;10481048;28;20056;-68
2023/09/03 10:09:32;;;;;;;1.35;1.25;;;;;;;20.55;62.23;101187.94;10415850;28;20053;-68
2023/09/03 10:14:35;;;;;;;1.98;1.60;;;;;;;20.40;62.31;101192.06;10400467;28;20424;-68
2023/09/03 10:19:55;;;;;;;1.73;1.30;;;;;;;20.31;63.18;101194.91;10368353;28;20038;-71
2023/09/03 10:25:05;;;;;;;2.00;1.67;;;;;;;20.22;63.84;101201.63;10403902;28;20058;-68
2023/09/03 10:30:10;;;;;;;2.83;1.67;;;;;;;20.03;65.00;101215.94;10401913;28;20041;-68
2023/09/03 10:35:13;;;;;;;2.55;1.65;;;;;;;20.24;64.31;101221.63;10424914;28;20042;-67
2023/09/03 10:40:22;;;;;;;1.70;1.60;;;;;;;19.98;65.00;101216.94;10440541;28;20041;-68
2023/09/03 10:45:24;;;;;;;2.25;1.70;;;;;;;19.82;66.34;101208.28;10442055;28;20041;-72
2023/09/03 10:50:52;;;;;;;1.70;1.60;;;;;;;19.60;66.95;101208.44;10447829;28;20041;-70
2023/09/03 10:56:10;;;;;;;2.30;1.70;;;;;;;19.94;66.00;101195.63;10446475;28;20041;-71
2023/09/03 11:01:17;;;;;;;1.85;1.73;;;;;;;20.20;65.82;101212.31;10414853;28;20053;-67
2023/09/03 11:06:21;;;;;;;2.40;1.80;;;;;;;20.10;65.42;101214.28;10480537;28;20048;-68
2023/09/03 11:11:23;;;;;;;1.67;1.45;;;;;;;20.26;64.69;101231.28;10482997;28;20523;-68
2023/09/03 11:16:29;;;;;;;1.42;1.30;;;;;;;20.01;66.24;101234.97;10431368;28;20038;-67
2023/09/03 11:21:32;;;;;;;2.37;1.87;;;;;;;;;;10394725;28;20037;-74
2023/09/03 11:26:34;;;;;;;2.60;1.58;;;;;;;20.21;66.65;101237.03;10447418;28;20084;-71
2023/09/03 11:31:45;;;;;;;2.20;1.45;;;;;;;20.27;65.92;101237.69;10439294;28;20037;-68
2023/09/03 11:36:48;;;;;;;3.42;1.40;;;;;;;20.51;64.89;101232.41;10448333;28;20053;-74
2023/09/03 11:41:50;;;;;;;3.42;1.58;;;;;;;20.53;65.58;101232.88;10444823;28;20049;-73
2023/09/03 11:47:00;;;;;;;2.78;2.00;;;;;;;20.50;65.76;101236.34;10448119;28;20518;-72
2023/09/03 11:52:12;;;;;;;2.03;1.70;;;;;;;20.56;64.90;101248.94;10440233;28;20045;-72
2023/09/03 11:57:15;;;;;;;2.85;1.58;;;;;;;20.57;65.62;101253.38;10441160;28;20048;-73
2023/09/03 12:02:18;;;;;;;2.58;1.90;;;;;;;20.63;65.15;101243.66;10445414;28;20050;-72
2023/09/03 12:07:20;;;;;;;2.92;1.63;;;;;;;20.66;64.33;101251.38;10399796;28;20061;-72
2023/09/03 12:12:22;;;;;;;2.90;1.55;;;;;;;20.44;65.03;101257.16;10403931;28;20527;-72
2023/09/03 12:17:28;;;;;;;1.92;1.70;;;;;;;20.25;65.37;101256.69;10438135;28;20121;-72
2023/09/03 12:22:30;;;;;;;6.97;1.70;;;;;;;20.49;64.19;101256.19;10444866;28;20040;-72
2023/09/03 12:27:48;;;;;;;3.05;1.88;;;;;;;20.23;65.79;101265.41;10457750;28;20045;-75
2023/09/03 12:32:53;;;;;;;2.97;1.52;;;;;;;20.36;65.29;101274.72;10475426;28;20068;-74
2023/09/03 12:38:00;;;;;;;2.65;1.67;;;;;;;20.30;64.14;101278.81;10485893;28;20048;-74
2023/09/03 12:43:02;;;;;;;1.95;1.50;;;;;;;20.69;62.72;101277.78;10478957;28;20064;-71
2023/09/03 12:48:05;;;;;;;2.50;1.38;;;;;;;20.61;63.61;101270.25;10439100;28;20050;-74
2023/09/03 12:53:07;;;;;;;1.67;1.42;;;;;;;20.11;64.66;101268.84;10413062;28;20041;-67
2023/09/03 12:58:09;;;;;;;1.58;1.48;;;;;;;20.25;63.46;101273.44;10456351;28;20136;-73
2023/09/03 13:03:13;;;;;;;1.98;1.35;;;;;;;20.42;62.90;101279.00;10429389;28;20048;-69
2023/09/03 13:08:15;;;;;;;1.58;1.40;;;;;;;20.17;63.30;101281.47;10428953;28;20033;-68
2023/09/03 13:13:18;;;;;;;2.95;1.58;;;;;;;20.04;63.08;101282.47;10444241;28;20384;-68
2023/09/03 13:18:20;;;;;;;2.42;1.55;;;;;;;19.83;63.92;101281.50;10443760;28;20047;-68
2023/09/03 13:23:23;;;;;;;2.58;1.45;;;;;;;19.66;64.55;101276.75;10442550;28;20046;-68
2023/09/03 13:28:25;;;;;;;1.60;1.50;;;;;;;19.55;64.84;101279.03;10443344;28;20419;-68
2023/09/03 13:33:28;;;;;;;2.42;1.77;;;;;;;19.51;64.96;101280.81;10439088;28;20140;-68
2023/09/03 13:38:32;;;;;;;2.17;1.50;;;;;;;19.54;65.05;101282.16;10424277;28;20423;-68
2023/09/03 13:43:34;;;;;;;1.92;1.55;;;;;;;19.61;64.16;101282.47;10401780;28;20057;-67
2023/09/03 13:48:37;;;;;;;1.83;1.52;;;;;;;19.79;63.97;101286.09;10417781;28;20054;-67
2023/09/03 13:53:39;;;;;;;1.65;1.45;;;;;;;19.85;63.68;101285.59;10405579;28;20092;-67
2023/09/03 13:58:42;;;;;;;2.25;1.40;;;;;;;20.03;62.02;101283.63;10403864;28;20048;-68
2023/09/03 14:03:44;;;;;;;1.63;1.52;;;;;;;19.73;64.00;101284.63;10402197;28;20176;-68
2023/09/03 14:08:46;;;;;;;2.83;1.88;;;;;;;19.30;65.44;101288.16;10400515;28;20037;-68
2023/09/03 14:13:49;;;;;;;1.73;1.42;;;;;;;19.23;65.32;101282.22;10401535;28;20041;-68
2023/09/03 14:18:51;;;;;;;2.38;1.60;;;;;;;19.19;64.85;101281.25;10401699;28;20395;-68
2023/09/03 14:23:55;;;;;;;3.33;1.60;;;;;;;19.01;66.15;101282.31;10402063;28;20052;-68
2023/09/03 14:28:57;;;;;;;2.33;1.70;;;;;;;18.93;66.35;101295.91;10401372;28;20034;-68
2023/09/03 14:33:59;;;;;;;2.13;1.90;;;;;;;18.94;66.72;101283.63;10400831;28;20042;-68
2023/09/03 14:39:01;;;;;;;2.80;1.80;;;;;;;19.07;66.80;101281.03;10400873;28;20038;-68
2023/09/03 14:44:04;;;;;;;1.88;1.67;;;;;;;18.77;67.34;101283.56;10398785;28;20068;-68
2023/09/03 14:49:09;;;;;;;1.75;1.50;;;;;;;18.68;68.35;101282.69;10401043;28;20038;-68
2023/09/03 14:54:11;;;;;;;1.67;1.45;;;;;;;18.78;68.21;101287.97;10407460;28;20038;-68
2023/09/03 14:59:13;;;;;;;2.03;1.50;;;;;;;18.66;69.16;101293.31;10408304;28;20038;-68
2023/09/03 15:04:16;;;;;;;3.15;2.05;;;;;;;18.71;69.33;101287.59;10407998;28;20061;-68
2023/09/03 15:09:18;;;;;;;2.97;1.80;;;;;;;18.34;69.12;101286.06;10408651;28;20056;-68
2023/09/03 15:14:21;;;;;;;2.15;1.30;;;;;;;18.38;68.50;101289.84;10422955;28;20057;-68
2023/09/03 15:19:23;;;;;;;2.28;1.40;;;;;;;18.44;67.95;101287.78;10407698;28;20425;-68
2023/09/03 15:24:25;;;;;;;1.65;1.27;;;;;;;18.40;68.35;101282.03;10407073;28;20037;-69
2023/09/03 15:29:27;;;;;;;1.50;1.40;;;;;;;18.37;68.58;101289.03;10407315;28;20041;-68
2023/09/03 15:34:29;;;;;;;1.40;1.30;;;;;;;18.47;67.76;101287.13;10409770;28;20057;-68
2023/09/03 15:39:31;;;;;;;1.42;1.33;;;;;;;18.38;67.52;101287.88;10407057;28;20049;-68
2023/09/03 15:44:34;;;;;;;1.50;1.15;;;;;;;18.35;67.24;101293.25;10405287;28;20423;-68
2023/09/03 15:49:36;;;;;;;2.75;1.40;;;;;;;18.08;67.56;101294.25;10406583;28;20041;-68
2023/09/03 15:54:41;;;;;;;1.50;1.00;;;;;;;18.15;66.46;101302.13;10406156;28;20041;-68
2023/09/03 15:59:43;;;;;;;1.25;0.95;;;;;;;18.20;66.42;101294.47;10406180;28;20045;-68
2023/09/03 16:04:45;;;;;;;1.33;1.23;;;;;;;18.25;66.45;101294.38;10405388;28;20048;-68
2023/09/03 16:09:47;;;;;;;2.30;1.10;;;;;;;18.19;66.63;101303.94;10388198;28;20385;-68
2023/09/03 16:14:51;;;;;;;1.73;1.17;;;;;;;18.08;66.94;101320.06;10405470;28;20045;-68
2023/09/03 16:19:54;;;;;;;2.20;1.35;;;;;;;18.05;67.49;101308.78;10406359;28;20054;-68
2023/09/03 16:24:56;;;;;;;2.67;1.38;;;;;;;18.06;67.68;101318.75;10404786;28;20045;-68
2023/09/03 16:29:58;;;;;;;1.67;1.20;;;;;;;17.99;68.12;101315.56;10405406;28;20050;-68
2023/09/03 16:35:00;;;;;;;1.38;1.27;;;;;;;17.93;68.65;101323.19;10404589;28;20046;-68
2023/09/03 16:40:04;;;;;;;1.50;1.27;;;;;;;17.98;69.26;101331.41;10404261;28;20050;-69
2023/09/03 16:45:07;;;;;;;2.15;1.60;;;;;;;17.94;69.56;101337.91;10403304;28;20046;-69
2023/09/03 16:50:09;;;;;;;2.95;1.52;;;;;;;17.93;69.56;101339.03;10404233;28;20447;-68
2023/09/03 16:55:11;;;;;;;3.78;2.05;;;;;;;17.96;69.73;101347.56;10404188;28;20061;-69
2023/09/03 17:00:14;;;;;;;2.78;1.98;;;;;;;17.57;71.27;101341.78;10466519;28;20163;-69
2023/09/03 17:05:16;;;;;;;1.67;1.58;;;;;;;17.51;72.01;101341.03;10459243;28;20392;-68
2023/09/03 17:10:18;;;;;;;2.05;1.85;;;;;;;17.72;71.79;101345.06;10442663;28;20410;-69
2023/09/03 17:15:20;;;;;;;3.33;2.15;;;;;;;17.63;72.57;101344.13;10440871;28;20416;-68
2023/09/03 17:20:23;;;;;;;2.67;2.03;;;;;;;17.57;72.05;101348.16;10444201;28;20056;-68
2023/09/03 17:25:25;;;;;;;4.20;2.30;;;;;;;17.43;72.62;101353.72;10444344;28;20060;-68
2023/09/03 17:30:28;;;;;;;2.45;1.80;;;;;;;17.26;73.92;101347.97;10443693;28;20048;-68
2023/09/03 17:35:30;;;;;;;2.47;1.80;;;;;;;17.18;73.72;101357.00;10439845;28;20060;-68
2023/09/03 17:40:32;;;;;;;2.90;1.98;;;;;;;17.36;73.25;101353.31;10437833;28;20063;-69
2023/09/03 17:45:39;;;;;;;2.90;1.80;;;;;;;17.33;73.00;101366.97;10421360;28;20037;-68
2023/09/03 17:50:41;;;;;;;4.70;1.60;;;;;;;17.46;72.75;101361.41;10442792;28;20125;-68
2023/09/03 17:55:44;;;;;;;4.00;1.90;;;;;;;17.32;73.41;101368.09;10442352;28;20052;-69
2023/09/03 18:00:47;;;;;;;2.05;1.85;;;;;;;17.31;73.43;101370.03;10436465;28;20052;-68
2023/09/03 18:05:49;;;;;;;3.50;1.52;;;;;;;17.29;73.42;101365.94;10442317;28;20052;-69
2023/09/03 18:10:51;;;;;;;2.40;1.70;;;;;;;17.40;72.98;101375.72;10441142;28;20428;-68
2023/09/03 18:15:59;;;;;;;2.20;1.92;;;;;;;17.32;73.64;101374.47;10440705;28;20042;-68
2023/09/03 18:21:01;;;;;;;2.58;1.55;;;;;;;17.37;73.32;101365.25;10441823;28;20506;-68
2023/09/03 18:26:09;;;;;;;2.58;1.88;;;;;;;17.20;73.27;101371.41;10442669;28;20543;-68
2023/09/03 18:31:11;;;;;;;2.45;1.67;;;;;;;16.75;75.69;101386.94;10463715;28;20055;-68
2023/09/03 18:36:14;;;;;;;2.53;1.55;;;;;;;16.56;76.70;101376.69;10453658;28;20132;-68
2023/09/03 18:41:16;;;;;;;2.75;1.77;;;;;;;16.52;77.40;101380.38;10449762;28;20064;-69
2023/09/03 18:46:18;;;;;;;2.40;1.90;;;;;;;16.17;78.66;101382.63;10448332;28;20041;-68
2023/09/03 18:51:21;;;;;;;3.20;1.90;;;;;;;16.15;79.41;101382.09;10449582;28;20042;-67
2023/09/03 18:56:23;;;;;;;3.63;1.65;;;;;;;16.08;80.23;101380.81;10449648;28;20060;-68
2023/09/03 19:01:27;;;;;;;2.72;2.20;;;;;;;16.15;80.14;101378.50;10446926;28;20044;-69
2023/09/03 19:06:29;;;;;;;5.43;2.00;;;;;;;15.97;80.94;101389.28;10447511;28;20041;-67
2023/09/03 19:11:31;;;;;;;2.70;1.73;;;;;;;15.96;80.65;101373.75;10448629;28;20041;-67
2023/09/03 19:16:34;;;;;;;2.83;2.38;;;;;;;15.97;80.86;101383.75;10448352;28;20037;-69
2023/09/03 19:21:36;;;;;;;2.75;2.17;;;;;;;16.20;80.07;101386.72;10446943;28;20084;-68
2023/09/03 19:26:39;;;;;;;2.30;2.10;;;;;;;16.13;80.50;101381.53;10446634;28;20049;-68
2023/09/03 19:31:41;;;;;;;3.92;2.00;;;;;;;15.99;80.93;101388.97;10438941;28;20068;-69
2023/09/03 19:36:47;;;;;;;4.25;1.98;;;;;;;16.25;80.32;101389.41;10428182;28;20041;-69
2023/09/03 19:41:50;;;;;;;2.23;1.97;;;;;;;16.34;80.14;101393.16;10447562;28;20055;-68
2023/09/03 19:46:52;;;;;;;3.90;1.90;;;;;;;16.64;78.83;101388.19;10447439;28;20056;-69
2023/09/03 19:51:55;;;;;;;2.22;1.98;;;;;;;16.77;78.05;101384.69;10445613;28;20033;-69
2023/09/03 19:56:57;;;;;;;3.08;2.08;;;;;;;16.84;77.85;101390.66;10452955;28;20045;-70
2023/09/03 20:02:00;;;;;;;2.20;1.95;;;;;;;16.95;77.48;101397.66;10458059;28;20186;-69
2023/09/03 20:07:03;;;;;;;3.33;2.78;;;;;;;17.10;76.61;101393.78;10468618;28;20041;-68
2023/09/03 20:12:10;;;;;;;3.38;2.20;;;;;;;17.06;76.89;101396.34;10445115;28;20041;-68
2023/09/03 20:17:13;;;;;;;4.20;2.40;;;;;;;17.00;76.97;101394.78;10447448;28;20063;-68
2023/09/03 20:22:18;;;;;;;2.95;2.00;;;;;;;16.80;77.78;101390.44;10453736;28;20539;-68
2023/09/03 20:27:20;;;;;;;2.95;2.08;;;;;;;16.86;78.22;101380.91;10438224;28;20419;-68
2023/09/03 20:32:23;;;;;;;3.58;2.10;;;;;;;16.84;78.00;101385.13;10445279;28;20508;-68
2023/09/03 20:37:33;;;;;;;3.30;2.10;;;;;;;16.80;78.45;101378.53;10445614;28;20056;-68
2023/09/03 20:42:36;;;;;;;2.50;2.30;;;;;;;16.86;78.38;101392.00;10404182;28;20057;-68
2023/09/03 20:47:40;;;;;;;3.20;2.25;;;;;;;16.48;79.17;101394.00;10439963;28;20053;-68
2023/09/03 20:52:42;;;;;;;3.40;2.20;;;;;;;16.69;79.42;101402.03;10427874;28;20037;-68
2023/09/03 20:57:44;;;;;;;2.97;2.17;;;;;;;16.68;79.22;101400.38;10445587;28;20519;-67
2023/09/03 21:02:47;;;;;;;2.80;2.22;;;;;;;16.61;79.36;101394.34;10442673;28;20033;-67
2023/09/03 21:07:51;;;;;;;4.10;2.90;;;;;;;16.69;79.32;101393.72;10444683;28;20056;-68
2023/09/03 21:12:54;;;;;;;2.35;2.15;;;;;;;16.75;79.21;101409.13;10444707;28;20037;-68
2023/09/03 21:17:56;;;;;;;3.45;2.22;;;;;;;16.62;79.43;101407.09;10444471;28;20049;-68
2023/09/03 21:22:59;;;;;;;7.05;2.25;;;;;;;16.66;78.46;101416.44;10444439;28;20408;-67
2023/09/03 21:28:01;;;;;;;4.57;1.90;;;;;;;16.68;79.11;101414.22;10444667;28;20551;-68
2023/09/03 21:33:03;;;;;;;3.30;2.38;;;;;;;16.37;79.50;101414.69;10425928;28;20451;-68
2023/09/03 21:38:06;;;;;;;2.47;2.00;;;;;;;16.42;79.73;101422.91;10442396;28;20042;-67
2023/09/03 21:43:12;;;;;;;2.85;2.25;;;;;;;16.40;79.69;101425.16;10425180;28;20056;-66
2023/09/03 21:48:14;;;;;;;3.67;2.40;;;;;;;16.45;78.92;101433.41;10418892;28;20061;-67
2023/09/03 21:53:18;;;;;;;4.35;2.58;;;;;;;16.25;79.72;101436.47;10420016;28;20049;-67
2023/09/03 21:58:22;;;;;;;3.00;2.00;;;;;;;16.15;81.84;101447.72;10416505;28;20052;-68
2023/09/03 22:03:25;;;;;;;3.55;2.33;;;;;;;16.26;80.66;101451.97;10442699;28;20117;-67
2023/09/03 22:08:27;;;;;;;3.58;2.65;;;;;;;16.14;80.72;101451.59;10442594;28;20107;-68
2023/09/03 22:13:31;;;;;;;2.92;2.25;;;;;;;16.20;80.36;101453.19;10444969;28;20049;-67
2023/09/03 22:18:33;;;;;;;3.08;2.35;;;;;;;16.23;79.95;101452.56;10460224;28;20045;-68
2023/09/03 22:23:36;;;;;;;2.55;2.30;;;;;;;16.14;79.79;101457.13;10470872;28;20084;-68
2023/09/03 22:28:39;;;;;;;5.93;2.75;;;;;;;16.11;80.23;101454.97;10483190;28;20045;-68
2023/09/03 22:33:41;;;;;;;3.10;2.50;;;;;;;16.26;79.89;101458.34;10469979;28;20151;-68
2023/09/03 22:38:43;;;;;;;4.45;2.58;;;;;;;16.33;79.83;101463.53;10465903;28;20049;-68
2023/09/03 22:43:47;;;;;;;3.88;2.45;;;;;;;16.45;79.27;101460.28;10442100;28;20056;-68
2023/09/03 22:48:50;;;;;;;3.35;2.40;;;;;;;16.45;79.45;101466.63;10441753;28;20507;-68
2023/09/03 22:53:52;;;;;;;2.95;2.30;;;;;;;16.16;79.71;101465.97;10433369;28;20045;-67
2023/09/03 22:58:55;;;;;;;3.70;2.60;;;;;;;15.97;82.18;101460.44;10424098;28;20056;-67
2023/09/03 23:03:57;;;;;;;2.75;2.42;;;;;;;16.18;80.63;101467.31;10420900;28;20164;-67
2023/09/03 23:08:59;;;;;;;2.30;2.10;;;;;;;16.12;80.01;101471.28;10451950;28;20045;-67
2023/09/03 23:14:01;;;;;;;3.58;2.45;;;;;;;16.16;79.77;101477.06;10481164;28;20045;-67